createdAt,value
2024-03-08T00:00:33.828Z,32.70
2024-03-08T00:03:00.599Z,29.40
2024-03-08T00:05:27.567Z,29.80
2024-03-08T00:07:54.265Z,28.40
2024-03-08T00:10:21.228Z,30.40
2024-03-08T00:12:48.276Z,29.50
2024-03-08T00:15:18.260Z,28.20
2024-03-08T00:17:46.673Z,27.90
2024-03-08T00:20:13.379Z,28.80
2024-03-08T00:22:40.490Z,30.50
2024-03-08T00:25:08.584Z,27.20
2024-03-08T00:27:35.517Z,29.30
2024-03-08T00:30:02.623Z,28.60
2024-03-08T00:32:29.797Z,29.40
2024-03-08T00:34:56.894Z,30.70
2024-03-08T00:37:23.632Z,28.90
2024-03-08T00:39:51.205Z,29.50
2024-03-08T00:42:18.760Z,29.60
2024-03-08T00:44:45.537Z,30.50
2024-03-08T00:47:12.564Z,28.50
2024-03-08T00:49:39.402Z,30.10
2024-03-08T00:52:06.765Z,29.30
2024-03-08T00:54:34.019Z,28.10
2024-03-08T00:57:00.824Z,28.50
2024-03-08T00:59:27.671Z,28.50
2024-03-08T01:01:54.458Z,28.80
2024-03-08T01:04:21.589Z,30.40
2024-03-08T01:06:48.713Z,26.70
2024-03-08T01:09:15.442Z,28.80
2024-03-08T01:11:42.181Z,28.50
2024-03-08T01:14:08.914Z,28.30
2024-03-08T01:16:35.977Z,28.70
2024-03-08T01:19:02.803Z,29.00
2024-03-08T01:21:29.565Z,29.20
2024-03-08T01:23:56.327Z,28.50
2024-03-08T01:26:23.146Z,30.00
2024-03-08T01:28:50.854Z,30.70
2024-03-08T01:31:17.560Z,29.40
2024-03-08T01:33:44.574Z,30.10
2024-03-08T01:36:11.622Z,30.20
2024-03-08T01:38:38.466Z,30.60
2024-03-08T01:41:05.679Z,28.00
2024-03-08T01:43:32.322Z,28.20
2024-03-08T01:46:00.252Z,29.30
2024-03-08T01:48:28.641Z,27.90
2024-03-08T01:50:55.575Z,28.50
2024-03-08T01:53:23.394Z,27.60
2024-03-08T01:55:51.060Z,27.70
2024-03-08T01:58:17.835Z,28.60
2024-03-08T02:00:47.139Z,27.40
2024-03-08T02:03:13.912Z,28.10
2024-03-08T02:05:42.191Z,28.10
2024-03-08T02:08:09.810Z,27.90
2024-03-08T02:10:36.453Z,26.90
2024-03-08T02:13:03.857Z,24.80
2024-03-08T02:15:52.681Z,27.10
2024-03-08T02:18:20.346Z,27.60
2024-03-08T02:20:57.086Z,29.30
2024-03-08T02:23:24.188Z,29.60
2024-03-08T02:25:51.034Z,28.40
2024-03-08T02:28:18.290Z,29.00
2024-03-08T02:30:45.692Z,28.70
2024-03-08T02:33:15.638Z,29.90
2024-03-08T02:35:43.379Z,27.20
2024-03-08T02:38:11.205Z,30.20
2024-03-08T02:40:38.055Z,30.50
2024-03-08T02:43:05.442Z,29.80
2024-03-08T02:45:32.359Z,32.90
2024-03-08T02:47:59.275Z,32.10
2024-03-08T02:50:26.054Z,30.60
2024-03-08T02:52:52.807Z,30.10
2024-03-08T02:55:19.860Z,30.20
2024-03-08T02:57:46.903Z,31.40
2024-03-08T03:00:14.530Z,30.00
2024-03-08T03:02:41.566Z,30.20
2024-03-08T03:05:08.897Z,30.60
2024-03-08T03:07:36.765Z,29.30
2024-03-08T03:10:03.716Z,29.20
2024-03-08T03:12:31.571Z,28.70
2024-03-08T03:14:59.001Z,28.20
2024-03-08T03:17:26.033Z,30.40
2024-03-08T03:19:53.813Z,30.80
2024-03-08T03:22:21.154Z,28.40
2024-03-08T03:24:47.877Z,28.60
2024-03-08T03:27:15.182Z,27.80
2024-03-08T03:29:43.724Z,30.50
2024-03-08T03:32:10.486Z,28.60
2024-03-08T03:34:37.228Z,29.40
2024-03-08T03:37:05.601Z,29.20
2024-03-08T03:39:32.262Z,28.60
2024-03-08T03:41:59.891Z,29.90
2024-03-08T03:44:26.659Z,27.10
2024-03-08T03:46:53.812Z,28.00
2024-03-08T03:49:21.267Z,27.40
2024-03-08T03:51:48.335Z,28.30
2024-03-08T03:54:15.103Z,29.00
2024-03-08T03:56:42.035Z,28.80
2024-03-08T03:59:09.646Z,27.90
2024-03-08T04:01:39.339Z,28.10
2024-03-08T04:04:06.451Z,29.30
2024-03-08T04:06:33.321Z,28.20
2024-03-08T04:09:00.010Z,26.50
2024-03-08T04:11:26.819Z,25.90
2024-03-08T04:13:53.541Z,26.40
2024-03-08T04:16:20.150Z,29.80
2024-03-08T04:18:46.899Z,27.00
2024-03-08T04:21:13.779Z,27.70
2024-03-08T04:23:41.130Z,28.60
2024-03-08T04:26:07.880Z,29.30
2024-03-08T04:28:35.136Z,30.10
2024-03-08T04:31:01.908Z,29.50
2024-03-08T04:33:28.685Z,31.40
2024-03-08T04:35:55.589Z,31.20
2024-03-08T04:38:23.589Z,30.60
2024-03-08T04:40:52.484Z,31.50
2024-03-08T04:43:19.203Z,30.20
2024-03-08T04:45:46.244Z,29.60
2024-03-08T04:48:13.258Z,27.90
2024-03-08T04:50:40.089Z,29.50
2024-03-08T04:53:06.791Z,28.20
2024-03-08T04:55:33.548Z,28.50
2024-03-08T04:58:00.280Z,28.90
2024-03-08T05:00:27.351Z,30.40
2024-03-08T05:02:54.151Z,28.00
2024-03-08T05:05:21.531Z,29.00
2024-03-08T05:07:48.195Z,28.10
2024-03-08T05:10:15.172Z,29.30
2024-03-08T05:12:41.987Z,30.00
2024-03-08T05:15:09.363Z,30.00
2024-03-08T05:17:36.406Z,28.60
2024-03-08T05:20:03.971Z,28.00
2024-03-08T05:22:30.851Z,29.10
2024-03-08T05:24:57.767Z,28.90
2024-03-08T05:27:24.569Z,28.90
2024-03-08T05:29:51.821Z,39.90
2024-03-08T05:32:18.618Z,49.50
2024-03-08T05:34:45.563Z,42.50
2024-03-08T05:37:12.310Z,35.70
2024-03-08T05:39:39.062Z,34.30
2024-03-08T05:42:06.218Z,28.70
2024-03-08T05:44:32.963Z,29.40
2024-03-08T05:46:59.785Z,32.70
2024-03-08T05:49:26.550Z,29.50
2024-03-08T05:51:53.391Z,28.50
2024-03-08T05:54:22.031Z,29.30
2024-03-08T05:56:50.483Z,29.50
2024-03-08T05:59:17.604Z,27.30
2024-03-08T06:01:44.259Z,28.10
2024-03-08T06:04:11.005Z,31.30
2024-03-08T06:06:37.675Z,28.00
2024-03-08T06:09:04.515Z,29.40
2024-03-08T06:11:31.721Z,26.50
2024-03-08T06:13:59.044Z,28.60
2024-03-08T06:16:25.949Z,29.60
2024-03-08T06:18:52.819Z,27.70
2024-03-08T06:21:19.684Z,28.80
2024-03-08T06:23:46.422Z,26.00
2024-03-08T06:26:13.274Z,26.80
2024-03-08T06:28:39.992Z,27.60
2024-03-08T06:31:06.734Z,27.70
2024-03-08T06:33:33.441Z,27.10
2024-03-08T06:36:00.276Z,25.80
2024-03-08T06:38:27.489Z,23.90
2024-03-08T06:40:54.431Z,25.70
2024-03-08T06:43:21.583Z,25.80
2024-03-08T06:45:48.777Z,24.10
2024-03-08T06:48:17.007Z,25.90
2024-03-08T06:50:45.414Z,27.60
2024-03-08T06:53:13.311Z,26.60
2024-03-08T06:55:40.321Z,29.40
2024-03-08T06:58:07.863Z,25.30
2024-03-08T07:00:35.084Z,25.10
2024-03-08T07:03:01.946Z,25.80
2024-03-08T07:05:31.884Z,26.50
2024-03-08T07:07:59.058Z,26.10
2024-03-08T07:10:26.216Z,26.10
2024-03-08T07:12:53.574Z,27.70
2024-03-08T07:15:21.432Z,28.30
2024-03-08T07:17:48.892Z,27.10
2024-03-08T07:20:16.081Z,31.30
2024-03-08T07:22:45.110Z,34.10
2024-03-08T07:25:13.358Z,29.20
2024-03-08T07:27:40.000Z,32.60
2024-03-08T07:30:09.097Z,37.00
2024-03-08T07:32:35.994Z,41.10
2024-03-08T07:35:03.411Z,48.90
2024-03-08T07:37:30.247Z,33.10
2024-03-08T07:39:56.888Z,26.00
2024-03-08T07:42:23.636Z,33.90
2024-03-08T07:44:50.729Z,30.40
2024-03-08T07:47:17.636Z,25.10
2024-03-08T07:49:44.391Z,23.60
2024-03-08T07:52:11.241Z,26.50
2024-03-08T07:54:37.989Z,37.90
2024-03-08T07:57:04.880Z,33.10
2024-03-08T07:59:31.666Z,32.30
2024-03-08T08:01:58.390Z,39.60
2024-03-08T08:04:25.165Z,35.90
2024-03-08T08:06:52.218Z,29.20
2024-03-08T08:09:18.958Z,30.70
2024-03-08T08:11:45.656Z,28.80
2024-03-08T08:14:12.336Z,29.00
2024-03-08T08:16:39.020Z,27.50
2024-03-08T08:19:05.747Z,28.10
2024-03-08T08:21:32.483Z,28.50
2024-03-08T08:23:59.334Z,27.80
2024-03-08T08:26:26.081Z,28.90
2024-03-08T08:28:53.139Z,28.20
2024-03-08T08:31:19.921Z,28.20
2024-03-08T08:33:48.891Z,30.20
2024-03-08T08:36:16.999Z,27.70
2024-03-08T08:38:44.672Z,26.80
2024-03-08T08:41:12.025Z,28.60
2024-03-08T08:43:43.866Z,26.50
2024-03-08T08:46:21.394Z,29.60
2024-03-08T08:48:48.591Z,27.00
2024-03-08T08:51:15.739Z,30.60
2024-03-08T08:53:43.556Z,28.90
2024-03-08T08:56:11.935Z,25.00
2024-03-08T08:58:43.475Z,23.80
2024-03-08T09:01:11.152Z,25.00
2024-03-08T09:03:38.329Z,24.10
2024-03-08T09:06:06.029Z,24.30
2024-03-08T09:08:33.817Z,24.70
2024-03-08T09:11:00.980Z,25.50
2024-03-08T09:13:31.755Z,24.20
2024-03-08T09:16:00.477Z,25.70
2024-03-08T09:18:27.085Z,27.70
2024-03-08T09:20:53.774Z,23.30
2024-03-08T09:23:23.617Z,24.20
2024-03-08T09:25:50.384Z,23.60
2024-03-08T09:28:17.545Z,24.70
2024-03-08T09:30:53.791Z,22.20
2024-03-08T09:33:24.182Z,26.10
2024-03-08T09:35:50.826Z,27.00
2024-03-08T09:38:17.468Z,24.50
2024-03-08T09:40:44.759Z,26.30
2024-03-08T09:43:11.911Z,26.80
2024-03-08T09:45:38.932Z,26.60
2024-03-08T09:48:06.404Z,24.30
2024-03-08T09:50:33.030Z,24.60
2024-03-08T09:53:00.118Z,35.40
2024-03-08T09:55:27.515Z,25.70
2024-03-08T09:57:56.128Z,23.90
2024-03-08T10:00:22.974Z,23.40
2024-03-08T10:02:51.561Z,24.40
2024-03-08T10:05:18.316Z,25.60
2024-03-08T10:07:45.089Z,99.60
2024-03-08T10:10:11.845Z,30.60
2024-03-08T10:12:39.556Z,33.50
2024-03-08T10:15:09.685Z,29.40
2024-03-08T10:17:36.703Z,35.90
2024-03-08T10:20:03.650Z,26.40
2024-03-08T10:22:31.028Z,22.50
2024-03-08T10:24:57.928Z,22.20
2024-03-08T10:27:24.774Z,24.80
2024-03-08T10:29:51.341Z,22.60
2024-03-08T10:32:18.352Z,21.50
2024-03-08T10:34:45.236Z,23.00
2024-03-08T10:37:16.867Z,24.20
2024-03-08T10:39:53.841Z,23.40
2024-03-08T10:42:29.805Z,28.50
2024-03-08T10:45:15.691Z,23.70
2024-03-08T10:47:43.152Z,23.40
2024-03-08T10:50:19.206Z,24.10
2024-03-08T10:52:46.375Z,23.60
2024-03-08T10:55:14.991Z,24.10
2024-03-08T10:57:42.204Z,24.10
2024-03-08T11:00:10.024Z,23.50
2024-03-08T11:02:36.823Z,24.60
2024-03-08T11:05:03.966Z,26.20
2024-03-08T11:07:35.554Z,26.80
2024-03-08T11:10:05.813Z,28.00
2024-03-08T11:12:38.343Z,22.80
2024-03-08T11:15:13.205Z,24.70
2024-03-08T11:17:39.942Z,24.00
2024-03-08T11:20:14.513Z,26.60
2024-03-08T11:22:41.227Z,23.00
2024-03-08T11:25:11.277Z,24.80
2024-03-08T11:27:38.493Z,23.10
2024-03-08T11:30:07.347Z,23.00
2024-03-08T11:32:34.100Z,23.20
2024-03-08T11:35:01.006Z,21.20
2024-03-08T11:37:29.709Z,23.90
2024-03-08T11:39:56.504Z,23.10
2024-03-08T11:42:23.245Z,24.30
2024-03-08T11:44:52.085Z,23.00
2024-03-08T11:47:19.499Z,23.80
2024-03-08T11:49:47.133Z,24.20
2024-03-08T11:52:17.750Z,24.30
2024-03-08T11:54:52.528Z,23.40
2024-03-08T11:57:19.994Z,23.20
2024-03-08T11:59:57.097Z,24.00
2024-03-08T12:02:24.577Z,24.70
2024-03-08T12:05:02.495Z,23.80
2024-03-08T12:07:29.573Z,24.30
2024-03-08T12:10:18.184Z,24.00
2024-03-08T12:12:50.176Z,24.40
2024-03-08T12:15:17.410Z,25.00
2024-03-08T12:17:44.291Z,23.10
2024-03-08T12:20:17.536Z,24.10
2024-03-08T12:22:45.854Z,24.50
2024-03-08T12:25:13.561Z,23.40
2024-03-08T12:27:42.177Z,22.70
2024-03-08T12:30:18.484Z,22.60
2024-03-08T12:32:50.419Z,25.20
2024-03-08T12:35:17.148Z,78.90
2024-03-08T12:37:43.921Z,69.00
2024-03-08T12:40:11.132Z,45.90
2024-03-08T12:42:38.197Z,38.70
2024-03-08T12:45:05.540Z,24.40
2024-03-08T12:47:32.462Z,24.50
2024-03-08T12:49:59.772Z,24.80
2024-03-08T12:52:26.735Z,25.10
2024-03-08T12:54:53.444Z,32.80
2024-03-08T12:57:20.077Z,28.20
2024-03-08T12:59:46.831Z,25.80
2024-03-08T13:02:13.640Z,24.50
2024-03-08T13:04:40.457Z,23.20
2024-03-08T13:07:07.475Z,25.00
2024-03-08T13:09:34.217Z,24.40
2024-03-08T13:12:01.095Z,24.60
2024-03-08T13:14:27.819Z,24.90
2024-03-08T13:16:54.607Z,26.50
2024-03-08T13:19:21.452Z,24.70
2024-03-08T13:21:48.204Z,26.30
2024-03-08T13:24:14.765Z,26.20
2024-03-08T13:26:41.460Z,26.00
2024-03-08T13:29:08.267Z,25.40
2024-03-08T13:31:35.127Z,26.50
2024-03-08T13:34:01.995Z,26.00
2024-03-08T13:36:28.593Z,26.90
2024-03-08T13:38:55.374Z,26.80
2024-03-08T13:41:22.027Z,26.20
2024-03-08T13:43:49.134Z,25.10
2024-03-08T13:46:16.025Z,25.10
2024-03-08T13:48:42.764Z,27.40
2024-03-08T13:51:10.221Z,26.10
2024-03-08T13:53:37.060Z,21.90
2024-03-08T13:56:05.047Z,22.80
2024-03-08T13:58:31.937Z,22.70
2024-03-08T14:00:58.715Z,24.10
2024-03-08T14:03:25.587Z,22.40
2024-03-08T14:05:52.382Z,23.30
2024-03-08T14:08:19.313Z,22.30
2024-03-08T14:10:46.153Z,24.50
2024-03-08T14:13:13.035Z,23.10
2024-03-08T14:15:39.735Z,23.00
2024-03-08T14:18:06.601Z,22.50
2024-03-08T14:20:33.696Z,22.90
2024-03-08T14:23:00.572Z,24.50
2024-03-08T14:25:27.555Z,24.80
2024-03-08T14:27:55.362Z,23.80
2024-03-08T14:30:22.293Z,24.60
2024-03-08T14:32:49.278Z,25.30
2024-03-08T14:35:16.196Z,26.00
2024-03-08T14:37:43.087Z,25.60
2024-03-08T14:40:10.111Z,25.60
2024-03-08T14:42:36.922Z,25.30
2024-03-08T14:45:17.000Z,24.10
2024-03-08T14:47:43.682Z,24.60
2024-03-08T14:50:10.479Z,24.20
2024-03-08T14:52:37.473Z,25.40
2024-03-08T14:55:04.885Z,20.10
2024-03-08T14:57:31.657Z,25.50
2024-03-08T14:59:58.587Z,25.90
2024-03-08T15:02:25.239Z,24.80
2024-03-08T15:04:52.241Z,26.90
2024-03-08T15:07:19.088Z,28.20
2024-03-08T15:09:45.883Z,29.40
2024-03-08T15:12:12.621Z,30.60
2024-03-08T15:14:42.388Z,32.00
2024-03-08T15:17:09.215Z,28.80
2024-03-08T15:19:36.001Z,29.20
2024-03-08T15:22:02.705Z,28.70
2024-03-08T15:24:29.343Z,30.20
2024-03-08T15:26:56.090Z,27.90
2024-03-08T15:29:22.718Z,29.20
2024-03-08T15:31:49.428Z,28.30
2024-03-08T15:34:16.488Z,28.30
2024-03-08T15:36:43.290Z,30.30
2024-03-08T15:39:10.118Z,30.70
2024-03-08T15:41:37.080Z,30.20
2024-03-08T15:44:03.954Z,31.90
2024-03-08T15:46:31.105Z,29.60
2024-03-08T15:48:57.938Z,25.80
2024-03-08T15:51:24.685Z,28.30
2024-03-08T15:53:51.429Z,28.80
2024-03-08T15:56:18.146Z,28.80
2024-03-08T15:58:45.169Z,28.50
2024-03-08T16:01:12.397Z,32.00
2024-03-08T16:03:39.645Z,33.20
2024-03-08T16:06:06.799Z,29.90
2024-03-08T16:08:33.748Z,31.60
2024-03-08T16:11:00.479Z,34.40
2024-03-08T16:13:28.590Z,34.40
2024-03-08T16:15:57.389Z,37.10
2024-03-08T16:18:24.750Z,38.20
2024-03-08T16:20:53.029Z,38.10
2024-03-08T16:23:20.693Z,38.00
2024-03-08T16:25:47.680Z,39.40
2024-03-08T16:28:15.284Z,37.20
2024-03-08T16:30:44.009Z,38.30
2024-03-08T16:33:10.793Z,37.20
2024-03-08T16:35:37.605Z,37.90
2024-03-08T16:38:04.492Z,36.90
2024-03-08T16:40:31.357Z,34.10
2024-03-08T16:42:58.378Z,28.60
2024-03-08T16:45:25.112Z,29.30
2024-03-08T16:47:52.323Z,28.80
2024-03-08T16:50:19.939Z,33.40
2024-03-08T16:52:46.824Z,30.70
2024-03-08T16:55:14.619Z,44.80
2024-03-08T16:57:42.437Z,34.50
2024-03-08T17:00:09.741Z,33.70
2024-03-08T17:02:36.827Z,32.40
2024-03-08T17:05:03.837Z,35.80
2024-03-08T17:07:30.689Z,31.30
2024-03-08T17:09:57.407Z,35.70
2024-03-08T17:12:24.159Z,38.20
2024-03-08T17:14:51.333Z,49.80
2024-03-08T17:17:18.200Z,34.90
2024-03-08T17:19:45.095Z,31.00
2024-03-08T17:22:12.091Z,32.80
2024-03-08T17:24:38.840Z,30.80
2024-03-08T17:27:06.401Z,33.40
2024-03-08T17:29:34.178Z,34.60
2024-03-08T17:32:01.200Z,44.00
2024-03-08T17:34:27.993Z,57.30
2024-03-08T17:36:55.939Z,53.40
2024-03-08T17:39:22.581Z,54.50
2024-03-08T17:41:49.567Z,62.70
2024-03-08T17:44:19.966Z,59.80
2024-03-08T17:46:47.186Z,53.00
2024-03-08T17:49:14.690Z,51.10
2024-03-08T17:51:42.276Z,47.50
2024-03-08T17:54:09.566Z,66.60
2024-03-08T17:56:36.265Z,63.80
2024-03-08T17:59:03.157Z,89.80
2024-03-08T18:01:31.922Z,79.70
2024-03-08T18:04:00.468Z,82.60
2024-03-08T18:06:27.215Z,74.10
2024-03-08T18:08:54.066Z,66.20
2024-03-08T18:11:20.881Z,65.10
2024-03-08T18:13:47.598Z,59.60
2024-03-08T18:16:14.527Z,80.00
2024-03-08T18:18:41.360Z,71.90
2024-03-08T18:21:08.110Z,89.80
2024-03-08T18:23:34.853Z,48.50
2024-03-08T18:26:01.706Z,42.60
2024-03-08T18:28:28.621Z,33.60
2024-03-08T18:30:55.896Z,37.60
2024-03-08T18:33:22.741Z,43.50
2024-03-08T18:35:49.593Z,40.00
2024-03-08T18:38:16.361Z,37.90
2024-03-08T18:40:43.101Z,41.40
2024-03-08T18:43:09.896Z,43.60
2024-03-08T18:45:36.707Z,39.90
2024-03-08T18:48:03.806Z,40.90
2024-03-08T18:50:30.581Z,39.10
2024-03-08T18:52:57.575Z,39.50
2024-03-08T18:55:25.229Z,40.30
2024-03-08T18:57:52.669Z,39.00
2024-03-08T19:00:21.892Z,39.10
2024-03-08T19:02:53.434Z,35.40
2024-03-08T19:05:21.398Z,37.20
2024-03-08T19:07:50.525Z,36.30
2024-03-08T19:10:19.804Z,38.50
2024-03-08T19:12:51.869Z,40.10
2024-03-08T19:15:24.063Z,49.20
2024-03-08T19:17:53.607Z,61.00
2024-03-08T19:20:21.845Z,67.10
2024-03-08T19:22:50.443Z,70.60
2024-03-08T19:25:17.191Z,68.00
2024-03-08T19:27:44.031Z,62.40
2024-03-08T19:30:12.971Z,84.90
2024-03-08T19:32:39.696Z,85.60
2024-03-08T19:35:07.120Z,79.70
2024-03-08T19:37:33.898Z,67.10
2024-03-08T19:40:00.515Z,69.40
2024-03-08T19:42:27.367Z,63.60
2024-03-08T19:44:54.109Z,75.10
2024-03-08T19:47:20.915Z,70.70
2024-03-08T19:49:47.647Z,65.40
2024-03-08T19:52:14.349Z,62.20
2024-03-08T19:54:40.995Z,69.70
2024-03-08T19:57:07.757Z,72.00
2024-03-08T19:59:35.412Z,80.40
2024-03-08T20:02:02.366Z,94.60
2024-03-08T20:04:29.132Z,93.80
2024-03-08T20:06:55.845Z,87.90
2024-03-08T20:09:22.936Z,82.90
2024-03-08T20:11:49.674Z,84.70
2024-03-08T20:14:16.691Z,94.70
2024-03-08T20:16:43.487Z,95.60
2024-03-08T20:19:10.196Z,93.00
2024-03-08T20:21:37.047Z,90.40
2024-03-08T20:24:04.203Z,89.10
2024-03-08T20:26:30.952Z,84.90
2024-03-08T20:28:57.616Z,94.90
2024-03-08T20:31:25.308Z,92.90
2024-03-08T20:33:52.103Z,101.10
2024-03-08T20:36:19.243Z,101.20
2024-03-08T20:38:45.883Z,126.10
2024-03-08T20:41:19.071Z,150.10
2024-03-08T20:43:45.966Z,121.40
2024-03-08T20:46:12.940Z,109.70
2024-03-08T20:48:39.807Z,109.80
2024-03-08T20:51:06.673Z,106.50
2024-03-08T20:53:33.733Z,105.80
2024-03-08T20:56:00.614Z,114.80
2024-03-08T20:58:27.586Z,105.80
2024-03-08T21:00:54.282Z,106.00
2024-03-08T21:03:21.621Z,101.40
2024-03-08T21:05:48.618Z,99.70
2024-03-08T21:08:15.655Z,91.40
2024-03-08T21:10:42.821Z,88.00
2024-03-08T21:13:11.579Z,77.30
2024-03-08T21:15:39.785Z,79.60
2024-03-08T21:18:07.098Z,75.70
2024-03-08T21:20:34.180Z,71.80
2024-03-08T21:23:01.434Z,69.00
2024-03-08T21:25:28.385Z,74.10
2024-03-08T21:27:55.237Z,63.90
2024-03-08T21:30:22.232Z,75.20
2024-03-08T21:32:52.788Z,71.10
2024-03-08T21:35:20.081Z,79.40
2024-03-08T21:37:50.622Z,74.50
2024-03-08T21:40:18.586Z,64.40
2024-03-08T21:42:45.476Z,78.20
2024-03-08T21:45:12.191Z,81.60
2024-03-08T21:47:38.987Z,94.60
2024-03-08T21:50:06.952Z,96.00
2024-03-08T21:52:34.052Z,87.50
2024-03-08T21:55:00.890Z,61.60
2024-03-08T21:57:27.476Z,47.30
2024-03-08T21:59:54.432Z,48.20
2024-03-08T22:02:21.224Z,47.10
2024-03-08T22:04:48.107Z,48.00
2024-03-08T22:07:14.940Z,44.90
2024-03-08T22:09:41.672Z,44.60
2024-03-08T22:12:08.575Z,49.10
2024-03-08T22:14:36.926Z,51.00
2024-03-08T22:17:04.402Z,52.70
2024-03-08T22:19:31.292Z,49.70
2024-03-08T22:21:58.106Z,45.40
2024-03-08T22:24:24.835Z,48.50
2024-03-08T22:26:51.565Z,48.70
2024-03-08T22:29:18.211Z,47.70
2024-03-08T22:31:45.096Z,50.70
2024-03-08T22:34:11.902Z,47.80
2024-03-08T22:36:38.662Z,52.50
2024-03-08T22:39:05.628Z,50.70
2024-03-08T22:41:32.354Z,49.60
2024-03-08T22:43:59.279Z,48.00
2024-03-08T22:46:26.306Z,49.00
2024-03-08T22:48:53.309Z,48.50
2024-03-08T22:51:20.037Z,49.00
2024-03-08T22:53:46.686Z,47.60
2024-03-08T22:56:13.522Z,50.90
2024-03-08T22:58:40.438Z,49.10
2024-03-08T23:01:07.365Z,45.90
2024-03-08T23:03:34.285Z,44.40
2024-03-08T23:06:01.432Z,44.70
2024-03-08T23:08:28.274Z,45.40
2024-03-08T23:10:54.970Z,42.20
2024-03-08T23:13:21.894Z,41.30
2024-03-08T23:15:48.622Z,42.20
2024-03-08T23:18:15.530Z,39.80
2024-03-08T23:20:42.712Z,39.50
2024-03-08T23:23:13.486Z,45.10
2024-03-08T23:25:41.770Z,44.40
2024-03-08T23:28:09.814Z,40.90
2024-03-08T23:30:37.269Z,44.30
2024-03-08T23:33:04.184Z,41.80
2024-03-08T23:35:31.074Z,42.50
2024-03-08T23:37:58.480Z,42.90
2024-03-08T23:40:25.506Z,42.50
2024-03-08T23:42:52.245Z,42.80
2024-03-08T23:45:20.624Z,41.80
2024-03-08T23:47:55.258Z,40.70
2024-03-08T23:50:30.413Z,42.70
2024-03-08T23:53:01.032Z,38.90
2024-03-08T23:55:30.837Z,40.60
2024-03-08T23:57:58.954Z,40.40
